sensor_id;sensor_type;location;lat;lon;timestamp;P1;durP1;ratioP1;P2;durP2;ratioP2
52380;SDS011;38310;52.796;6.942;2023-01-10T00:02:02;10.90;;;4.32;;
52380;SDS011;38310;52.796;6.942;2023-01-10T00:04:27;10.30;;;3.65;;
52380;SDS011;38310;52.796;6.942;2023-01-10T00:06:55;12.95;;;3.58;;
52380;SDS011;38310;52.796;6.942;2023-01-10T00:09:21;10.27;;;4.53;;
52380;SDS011;38310;52.796;6.942;2023-01-10T00:11:47;14.77;;;4.13;;
52380;SDS011;38310;52.796;6.942;2023-01-10T00:14:31;13.48;;;4.15;;
52380;SDS011;38310;52.796;6.942;2023-01-10T00:17:00;12.25;;;4.95;;
52380;SDS011;38310;52.796;6.942;2023-01-10T00:19:27;12.40;;;3.97;;
52380;SDS011;38310;52.796;6.942;2023-01-10T00:21:53;14.13;;;4.50;;
52380;SDS011;38310;52.796;6.942;2023-01-10T00:24:26;13.73;;;4.55;;
52380;SDS011;38310;52.796;6.942;2023-01-10T00:26:52;15.70;;;4.75;;
52380;SDS011;38310;52.796;6.942;2023-01-10T00:31:44;11.88;;;4.10;;
52380;SDS011;38310;52.796;6.942;2023-01-10T00:34:10;10.35;;;4.63;;
52380;SDS011;38310;52.796;6.942;2023-01-10T00:36:36;14.38;;;5.45;;
52380;SDS011;38310;52.796;6.942;2023-01-10T00:39:01;11.18;;;4.32;;
52380;SDS011;38310;52.796;6.942;2023-01-10T00:41:28;15.05;;;4.80;;
52380;SDS011;38310;52.796;6.942;2023-01-10T00:44:12;21.15;;;5.53;;
52380;SDS011;38310;52.796;6.942;2023-01-10T00:46:41;13.45;;;5.40;;
52380;SDS011;38310;52.796;6.942;2023-01-10T00:49:07;15.25;;;5.60;;
52380;SDS011;38310;52.796;6.942;2023-01-10T00:51:33;13.02;;;5.57;;
52380;SDS011;38310;52.796;6.942;2023-01-10T00:53:58;12.93;;;5.32;;
52380;SDS011;38310;52.796;6.942;2023-01-10T00:56:25;16.17;;;5.47;;
52380;SDS011;38310;52.796;6.942;2023-01-10T00:58:50;16.67;;;5.18;;
52380;SDS011;38310;52.796;6.942;2023-01-10T01:01:19;19.35;;;6.38;;
52380;SDS011;38310;52.796;6.942;2023-01-10T01:03:45;18.05;;;5.95;;
52380;SDS011;38310;52.796;6.942;2023-01-10T01:06:10;16.92;;;5.82;;
52380;SDS011;38310;52.796;6.942;2023-01-10T01:08:36;17.58;;;6.53;;
52380;SDS011;38310;52.796;6.942;2023-01-10T01:11:02;30.80;;;6.95;;
52380;SDS011;38310;52.796;6.942;2023-01-10T01:13:27;20.05;;;6.05;;
52380;SDS011;38310;52.796;6.942;2023-01-10T01:15:56;16.85;;;6.05;;
52380;SDS011;38310;52.796;6.942;2023-01-10T01:18:22;18.75;;;6.30;;
52380;SDS011;38310;52.796;6.942;2023-01-10T01:20:51;15.45;;;5.72;;
52380;SDS011;38310;52.796;6.942;2023-01-10T01:23:18;17.75;;;5.75;;
52380;SDS011;38310;52.796;6.942;2023-01-10T01:25:44;18.83;;;6.50;;
52380;SDS011;38310;52.796;6.942;2023-01-10T01:28:12;19.10;;;6.72;;
52380;SDS011;38310;52.796;6.942;2023-01-10T01:30:41;20.35;;;6.90;;
52380;SDS011;38310;52.796;6.942;2023-01-10T01:33:07;21.70;;;5.97;;
52380;SDS011;38310;52.796;6.942;2023-01-10T01:35:32;17.23;;;6.22;;
52380;SDS011;38310;52.796;6.942;2023-01-10T01:37:58;20.55;;;5.70;;
52380;SDS011;38310;52.796;6.942;2023-01-10T01:40:24;14.88;;;6.18;;
52380;SDS011;38310;52.796;6.942;2023-01-10T01:42:50;15.50;;;5.82;;
52380;SDS011;38310;52.796;6.942;2023-01-10T01:47:53;15.43;;;6.53;;
52380;SDS011;38310;52.796;6.942;2023-01-10T01:50:27;14.63;;;6.57;;
52380;SDS011;38310;52.796;6.942;2023-01-10T01:53:04;13.63;;;5.45;;
52380;SDS011;38310;52.796;6.942;2023-01-10T01:55:36;18.10;;;7.10;;
52380;SDS011;38310;52.796;6.942;2023-01-10T01:58:04;19.83;;;6.80;;
52380;SDS011;38310;52.796;6.942;2023-01-10T02:00:33;21.17;;;5.55;;
52380;SDS011;38310;52.796;6.942;2023-01-10T02:02:59;16.95;;;6.47;;
52380;SDS011;38310;52.796;6.942;2023-01-10T02:05:28;17.23;;;6.20;;
52380;SDS011;38310;52.796;6.942;2023-01-10T02:07:55;18.98;;;5.85;;
52380;SDS011;38310;52.796;6.942;2023-01-10T02:10:26;12.30;;;4.93;;
52380;SDS011;38310;52.796;6.942;2023-01-10T02:13:10;14.98;;;5.15;;
52380;SDS011;38310;52.796;6.942;2023-01-10T02:15:39;19.70;;;5.90;;
52380;SDS011;38310;52.796;6.942;2023-01-10T02:18:05;20.45;;;5.35;;
52380;SDS011;38310;52.796;6.942;2023-01-10T02:20:42;20.10;;;5.45;;
52380;SDS011;38310;52.796;6.942;2023-01-10T02:28:46;19.40;;;6.75;;
52380;SDS011;38310;52.796;6.942;2023-01-10T02:34:44;15.40;;;5.38;;
52380;SDS011;38310;52.796;6.942;2023-01-10T02:37:43;18.95;;;6.18;;
52380;SDS011;38310;52.796;6.942;2023-01-10T02:42:54;14.93;;;5.55;;
52380;SDS011;38310;52.796;6.942;2023-01-10T02:45:31;14.73;;;5.68;;
52380;SDS011;38310;52.796;6.942;2023-01-10T02:48:02;21.83;;;6.32;;
52380;SDS011;38310;52.796;6.942;2023-01-10T02:50:30;14.57;;;5.78;;
52380;SDS011;38310;52.796;6.942;2023-01-10T02:53:06;12.93;;;5.40;;
52380;SDS011;38310;52.796;6.942;2023-01-10T03:07:15;24.90;;;6.03;;
52380;SDS011;38310;52.796;6.942;2023-01-10T03:10:18;17.75;;;6.07;;
52380;SDS011;38310;52.796;6.942;2023-01-10T03:12:54;16.20;;;5.40;;
52380;SDS011;38310;52.796;6.942;2023-01-10T03:15:33;18.38;;;5.70;;
52380;SDS011;38310;52.796;6.942;2023-01-10T03:18:02;13.63;;;5.40;;
52380;SDS011;38310;52.796;6.942;2023-01-10T03:20:32;12.98;;;4.95;;
52380;SDS011;38310;52.796;6.942;2023-01-10T03:23:01;15.95;;;6.70;;
52380;SDS011;38310;52.796;6.942;2023-01-10T03:25:29;24.02;;;5.82;;
52380;SDS011;38310;52.796;6.942;2023-01-10T03:28:06;23.85;;;6.18;;
52380;SDS011;38310;52.796;6.942;2023-01-10T03:30:53;23.58;;;6.63;;
52380;SDS011;38310;52.796;6.942;2023-01-10T03:33:28;18.48;;;5.72;;
52380;SDS011;38310;52.796;6.942;2023-01-10T03:39:05;11.07;;;5.20;;
52380;SDS011;38310;52.796;6.942;2023-01-10T03:42:05;20.27;;;6.15;;
52380;SDS011;38310;52.796;6.942;2023-01-10T03:49:49;15.25;;;6.20;;
52380;SDS011;38310;52.796;6.942;2023-01-10T03:52:18;21.15;;;5.70;;
52380;SDS011;38310;52.796;6.942;2023-01-10T03:54:46;20.27;;;5.20;;
52380;SDS011;38310;52.796;6.942;2023-01-10T03:57:16;14.25;;;4.68;;
52380;SDS011;38310;52.796;6.942;2023-01-10T03:59:44;19.73;;;6.10;;
52380;SDS011;38310;52.796;6.942;2023-01-10T04:02:11;18.05;;;5.90;;
52380;SDS011;38310;52.796;6.942;2023-01-10T04:04:37;18.00;;;5.20;;
52380;SDS011;38310;52.796;6.942;2023-01-10T04:07:02;16.30;;;5.10;;
52380;SDS011;38310;52.796;6.942;2023-01-10T04:09:28;17.48;;;5.57;;
52380;SDS011;38310;52.796;6.942;2023-01-10T04:11:54;24.48;;;5.22;;
52380;SDS011;38310;52.796;6.942;2023-01-10T04:14:19;13.23;;;4.75;;
52380;SDS011;38310;52.796;6.942;2023-01-10T04:16:45;13.52;;;4.85;;
52380;SDS011;38310;52.796;6.942;2023-01-10T04:19:11;12.18;;;4.93;;
52380;SDS011;38310;52.796;6.942;2023-01-10T04:21:36;19.08;;;5.18;;
52380;SDS011;38310;52.796;6.942;2023-01-10T04:24:02;14.52;;;5.43;;
52380;SDS011;38310;52.796;6.942;2023-01-10T04:26:28;13.23;;;4.07;;
52380;SDS011;38310;52.796;6.942;2023-01-10T04:28:53;12.07;;;4.32;;
52380;SDS011;38310;52.796;6.942;2023-01-10T04:31:19;16.65;;;4.75;;
52380;SDS011;38310;52.796;6.942;2023-01-10T04:33:46;13.13;;;5.03;;
52380;SDS011;38310;52.796;6.942;2023-01-10T04:36:12;14.02;;;5.97;;
52380;SDS011;38310;52.796;6.942;2023-01-10T04:38:38;17.02;;;4.78;;
52380;SDS011;38310;52.796;6.942;2023-01-10T04:41:03;20.10;;;5.00;;
52380;SDS011;38310;52.796;6.942;2023-01-10T04:43:29;16.05;;;5.40;;
52380;SDS011;38310;52.796;6.942;2023-01-10T04:45:55;14.82;;;5.13;;
52380;SDS011;38310;52.796;6.942;2023-01-10T04:48:21;15.27;;;4.70;;
52380;SDS011;38310;52.796;6.942;2023-01-10T04:50:50;20.00;;;4.75;;
52380;SDS011;38310;52.796;6.942;2023-01-10T04:53:16;14.25;;;4.97;;
52380;SDS011;38310;52.796;6.942;2023-01-10T04:55:42;20.63;;;6.10;;
52380;SDS011;38310;52.796;6.942;2023-01-10T04:58:08;17.98;;;5.25;;
52380;SDS011;38310;52.796;6.942;2023-01-10T05:00:33;18.55;;;6.13;;
52380;SDS011;38310;52.796;6.942;2023-01-10T05:02:59;17.42;;;5.35;;
52380;SDS011;38310;52.796;6.942;2023-01-10T05:05:25;18.77;;;5.40;;
52380;SDS011;38310;52.796;6.942;2023-01-10T05:07:52;17.88;;;6.03;;
52380;SDS011;38310;52.796;6.942;2023-01-10T05:10:18;16.80;;;6.32;;
52380;SDS011;38310;52.796;6.942;2023-01-10T05:12:44;21.30;;;6.45;;
52380;SDS011;38310;52.796;6.942;2023-01-10T05:15:10;22.02;;;6.85;;
52380;SDS011;38310;52.796;6.942;2023-01-10T05:17:37;21.13;;;6.80;;
52380;SDS011;38310;52.796;6.942;2023-01-10T05:20:02;18.02;;;6.63;;
52380;SDS011;38310;52.796;6.942;2023-01-10T05:22:28;18.90;;;5.68;;
52380;SDS011;38310;52.796;6.942;2023-01-10T05:24:54;22.00;;;5.60;;
52380;SDS011;38310;52.796;6.942;2023-01-10T05:27:20;18.23;;;6.70;;
52380;SDS011;38310;52.796;6.942;2023-01-10T05:29:45;20.08;;;6.40;;
52380;SDS011;38310;52.796;6.942;2023-01-10T05:32:11;19.40;;;6.10;;
52380;SDS011;38310;52.796;6.942;2023-01-10T05:34:37;14.55;;;5.93;;
52380;SDS011;38310;52.796;6.942;2023-01-10T05:37:03;19.70;;;5.93;;
52380;SDS011;38310;52.796;6.942;2023-01-10T05:39:28;15.60;;;5.70;;
52380;SDS011;38310;52.796;6.942;2023-01-10T05:41:54;20.58;;;6.70;;
52380;SDS011;38310;52.796;6.942;2023-01-10T05:44:20;17.45;;;5.47;;
52380;SDS011;38310;52.796;6.942;2023-01-10T05:46:45;16.30;;;5.78;;
52380;SDS011;38310;52.796;6.942;2023-01-10T05:49:11;16.52;;;6.70;;
52380;SDS011;38310;52.796;6.942;2023-01-10T05:51:37;21.20;;;6.55;;
52380;SDS011;38310;52.796;6.942;2023-01-10T05:54:03;17.42;;;5.78;;
52380;SDS011;38310;52.796;6.942;2023-01-10T05:56:28;18.65;;;6.57;;
52380;SDS011;38310;52.796;6.942;2023-01-10T05:58:54;21.40;;;6.43;;
52380;SDS011;38310;52.796;6.942;2023-01-10T06:01:20;17.92;;;6.28;;
52380;SDS011;38310;52.796;6.942;2023-01-10T06:03:46;17.98;;;6.53;;
52380;SDS011;38310;52.796;6.942;2023-01-10T06:06:12;17.38;;;6.63;;
52380;SDS011;38310;52.796;6.942;2023-01-10T06:08:38;14.82;;;6.20;;
52380;SDS011;38310;52.796;6.942;2023-01-10T06:11:05;16.77;;;7.10;;
52380;SDS011;38310;52.796;6.942;2023-01-10T06:13:30;18.85;;;5.75;;
52380;SDS011;38310;52.796;6.942;2023-01-10T06:15:56;27.65;;;6.38;;
52380;SDS011;38310;52.796;6.942;2023-01-10T06:18:22;14.50;;;7.57;;
52380;SDS011;38310;52.796;6.942;2023-01-10T06:20:48;21.58;;;7.07;;
52380;SDS011;38310;52.796;6.942;2023-01-10T06:23:14;21.23;;;6.55;;
52380;SDS011;38310;52.796;6.942;2023-01-10T06:25:40;21.85;;;7.68;;
52380;SDS011;38310;52.796;6.942;2023-01-10T06:28:06;18.75;;;7.70;;
52380;SDS011;38310;52.796;6.942;2023-01-10T06:30:32;17.17;;;7.00;;
52380;SDS011;38310;52.796;6.942;2023-01-10T06:33:03;21.27;;;6.47;;
52380;SDS011;38310;52.796;6.942;2023-01-10T06:35:30;17.42;;;5.93;;
52380;SDS011;38310;52.796;6.942;2023-01-10T06:37:56;16.55;;;5.88;;
52380;SDS011;38310;52.796;6.942;2023-01-10T06:40:23;17.70;;;6.63;;
52380;SDS011;38310;52.796;6.942;2023-01-10T06:42:49;18.02;;;6.55;;
52380;SDS011;38310;52.796;6.942;2023-01-10T06:45:15;20.45;;;6.63;;
52380;SDS011;38310;52.796;6.942;2023-01-10T06:47:41;16.15;;;6.28;;
52380;SDS011;38310;52.796;6.942;2023-01-10T06:50:07;16.85;;;5.80;;
52380;SDS011;38310;52.796;6.942;2023-01-10T06:52:33;26.52;;;7.07;;
52380;SDS011;38310;52.796;6.942;2023-01-10T06:54:58;16.63;;;6.38;;
52380;SDS011;38310;52.796;6.942;2023-01-10T06:57:24;18.50;;;6.10;;
52380;SDS011;38310;52.796;6.942;2023-01-10T06:59:52;19.17;;;5.78;;
52380;SDS011;38310;52.796;6.942;2023-01-10T07:02:18;22.70;;;6.15;;
52380;SDS011;38310;52.796;6.942;2023-01-10T07:04:44;14.95;;;5.82;;
52380;SDS011;38310;52.796;6.942;2023-01-10T07:07:09;23.83;;;7.00;;
52380;SDS011;38310;52.796;6.942;2023-01-10T07:09:35;17.55;;;6.10;;
52380;SDS011;38310;52.796;6.942;2023-01-10T07:12:01;17.63;;;7.18;;
52380;SDS011;38310;52.796;6.942;2023-01-10T07:14:27;19.80;;;7.18;;
52380;SDS011;38310;52.796;6.942;2023-01-10T07:16:52;17.65;;;6.55;;
52380;SDS011;38310;52.796;6.942;2023-01-10T07:19:18;15.90;;;6.10;;
52380;SDS011;38310;52.796;6.942;2023-01-10T07:21:44;12.82;;;5.75;;
52380;SDS011;38310;52.796;6.942;2023-01-10T07:24:10;14.68;;;6.85;;
52380;SDS011;38310;52.796;6.942;2023-01-10T07:26:36;17.25;;;7.22;;
52380;SDS011;38310;52.796;6.942;2023-01-10T07:29:02;18.25;;;6.68;;
52380;SDS011;38310;52.796;6.942;2023-01-10T07:31:28;14.30;;;6.13;;
52380;SDS011;38310;52.796;6.942;2023-01-10T07:33:53;15.50;;;6.40;;
52380;SDS011;38310;52.796;6.942;2023-01-10T07:36:19;18.25;;;6.18;;
52380;SDS011;38310;52.796;6.942;2023-01-10T07:38:45;22.60;;;6.80;;
52380;SDS011;38310;52.796;6.942;2023-01-10T07:41:11;16.23;;;6.07;;
52380;SDS011;38310;52.796;6.942;2023-01-10T07:43:37;25.13;;;6.50;;
52380;SDS011;38310;52.796;6.942;2023-01-10T07:46:04;21.38;;;7.93;;
52380;SDS011;38310;52.796;6.942;2023-01-10T07:48:33;18.38;;;6.82;;
52380;SDS011;38310;52.796;6.942;2023-01-10T07:51:00;21.25;;;7.25;;
52380;SDS011;38310;52.796;6.942;2023-01-10T07:53:26;22.90;;;8.27;;
52380;SDS011;38310;52.796;6.942;2023-01-10T07:55:53;18.60;;;7.40;;
52380;SDS011;38310;52.796;6.942;2023-01-10T07:58:22;15.82;;;7.80;;
52380;SDS011;38310;52.796;6.942;2023-01-10T08:00:48;17.83;;;6.82;;
52380;SDS011;38310;52.796;6.942;2023-01-10T08:03:15;21.88;;;7.10;;
52380;SDS011;38310;52.796;6.942;2023-01-10T08:05:41;20.40;;;8.05;;
52380;SDS011;38310;52.796;6.942;2023-01-10T08:08:08;21.90;;;7.32;;
52380;SDS011;38310;52.796;6.942;2023-01-10T08:10:35;20.02;;;8.00;;
52380;SDS011;38310;52.796;6.942;2023-01-10T08:13:02;18.95;;;7.45;;
52380;SDS011;38310;52.796;6.942;2023-01-10T08:15:28;15.98;;;7.72;;
52380;SDS011;38310;52.796;6.942;2023-01-10T08:17:54;28.75;;;8.60;;
52380;SDS011;38310;52.796;6.942;2023-01-10T08:20:27;17.70;;;7.65;;
52380;SDS011;38310;52.796;6.942;2023-01-10T08:22:55;24.52;;;7.63;;
52380;SDS011;38310;52.796;6.942;2023-01-10T08:25:22;19.85;;;8.35;;
52380;SDS011;38310;52.796;6.942;2023-01-10T08:27:48;20.63;;;6.88;;
52380;SDS011;38310;52.796;6.942;2023-01-10T08:30:14;22.85;;;6.78;;
52380;SDS011;38310;52.796;6.942;2023-01-10T08:32:40;21.92;;;7.15;;
52380;SDS011;38310;52.796;6.942;2023-01-10T08:35:06;24.90;;;7.72;;
52380;SDS011;38310;52.796;6.942;2023-01-10T08:37:32;26.85;;;7.20;;
52380;SDS011;38310;52.796;6.942;2023-01-10T08:39:59;22.35;;;7.13;;
52380;SDS011;38310;52.796;6.942;2023-01-10T08:42:25;21.27;;;7.60;;
52380;SDS011;38310;52.796;6.942;2023-01-10T08:44:51;21.10;;;7.32;;
52380;SDS011;38310;52.796;6.942;2023-01-10T08:47:16;26.85;;;8.35;;
52380;SDS011;38310;52.796;6.942;2023-01-10T08:49:42;18.85;;;6.03;;
52380;SDS011;38310;52.796;6.942;2023-01-10T08:52:08;24.17;;;7.18;;
52380;SDS011;38310;52.796;6.942;2023-01-10T08:54:34;27.25;;;7.45;;
52380;SDS011;38310;52.796;6.942;2023-01-10T08:57:01;19.83;;;7.63;;
52380;SDS011;38310;52.796;6.942;2023-01-10T08:59:26;22.20;;;7.18;;
52380;SDS011;38310;52.796;6.942;2023-01-10T09:01:52;31.77;;;8.48;;
52380;SDS011;38310;52.796;6.942;2023-01-10T09:04:18;22.52;;;7.72;;
52380;SDS011;38310;52.796;6.942;2023-01-10T09:06:44;19.23;;;6.30;;
52380;SDS011;38310;52.796;6.942;2023-01-10T09:09:09;17.27;;;7.70;;
52380;SDS011;38310;52.796;6.942;2023-01-10T09:11:35;18.15;;;6.47;;
52380;SDS011;38310;52.796;6.942;2023-01-10T09:14:01;21.75;;;6.53;;
52380;SDS011;38310;52.796;6.942;2023-01-10T09:16:26;18.70;;;6.68;;
52380;SDS011;38310;52.796;6.942;2023-01-10T09:18:52;18.70;;;6.50;;
52380;SDS011;38310;52.796;6.942;2023-01-10T09:21:19;18.20;;;7.05;;
52380;SDS011;38310;52.796;6.942;2023-01-10T09:23:45;21.63;;;7.13;;
52380;SDS011;38310;52.796;6.942;2023-01-10T09:26:11;21.70;;;7.93;;
52380;SDS011;38310;52.796;6.942;2023-01-10T09:28:37;15.43;;;6.55;;
52380;SDS011;38310;52.796;6.942;2023-01-10T09:31:02;14.68;;;6.78;;
52380;SDS011;38310;52.796;6.942;2023-01-10T09:33:29;23.83;;;6.97;;
52380;SDS011;38310;52.796;6.942;2023-01-10T09:35:58;21.95;;;6.90;;
52380;SDS011;38310;52.796;6.942;2023-01-10T09:38:24;20.95;;;6.78;;
52380;SDS011;38310;52.796;6.942;2023-01-10T09:49:19;24.40;;;8.07;;
52380;SDS011;38310;52.796;6.942;2023-01-10T09:52:18;26.73;;;9.00;;
52380;SDS011;38310;52.796;6.942;2023-01-10T09:54:51;25.25;;;10.32;;
52380;SDS011;38310;52.796;6.942;2023-01-10T09:57:20;25.90;;;9.93;;
52380;SDS011;38310;52.796;6.942;2023-01-10T09:59:47;29.33;;;9.02;;
52380;SDS011;38310;52.796;6.942;2023-01-10T10:07:34;29.98;;;10.43;;
52380;SDS011;38310;52.796;6.942;2023-01-10T10:10:00;22.95;;;9.90;;
52380;SDS011;38310;52.796;6.942;2023-01-10T10:20:34;23.42;;;9.10;;
52380;SDS011;38310;52.796;6.942;2023-01-10T10:31:44;22.63;;;9.27;;
52380;SDS011;38310;52.796;6.942;2023-01-10T10:34:22;20.48;;;8.40;;
52380;SDS011;38310;52.796;6.942;2023-01-10T10:37:00;26.10;;;9.38;;
52380;SDS011;38310;52.796;6.942;2023-01-10T10:42:10;21.38;;;9.70;;
52380;SDS011;38310;52.796;6.942;2023-01-10T10:45:28;29.77;;;10.55;;
52380;SDS011;38310;52.796;6.942;2023-01-10T10:47:27;22.17;;;9.82;;
52380;SDS011;38310;52.796;6.942;2023-01-10T10:52:47;26.83;;;9.48;;
52380;SDS011;38310;52.796;6.942;2023-01-10T10:55:16;28.30;;;9.77;;
52380;SDS011;38310;52.796;6.942;2023-01-10T10:57:47;21.23;;;8.93;;
52380;SDS011;38310;52.796;6.942;2023-01-10T11:00:14;27.40;;;9.65;;
52380;SDS011;38310;52.796;6.942;2023-01-10T11:02:44;19.05;;;9.93;;
52380;SDS011;38310;52.796;6.942;2023-01-10T11:05:18;19.92;;;9.23;;
52380;SDS011;38310;52.796;6.942;2023-01-10T11:10:15;19.25;;;8.25;;
52380;SDS011;38310;52.796;6.942;2023-01-10T11:12:45;17.80;;;7.55;;
52380;SDS011;38310;52.796;6.942;2023-01-10T11:18:12;25.58;;;8.13;;
52380;SDS011;38310;52.796;6.942;2023-01-10T11:21:14;20.88;;;8.25;;
52380;SDS011;38310;52.796;6.942;2023-01-10T11:26:05;22.75;;;7.90;;
52380;SDS011;38310;52.796;6.942;2023-01-10T11:28:47;19.67;;;7.13;;
52380;SDS011;38310;52.796;6.942;2023-01-10T11:31:25;20.70;;;6.78;;
52380;SDS011;38310;52.796;6.942;2023-01-10T11:33:54;25.60;;;7.93;;
52380;SDS011;38310;52.796;6.942;2023-01-10T11:36:21;20.48;;;6.70;;
52380;SDS011;38310;52.796;6.942;2023-01-10T11:39:00;21.15;;;6.70;;
52380;SDS011;38310;52.796;6.942;2023-01-10T11:41:28;20.70;;;7.05;;
52380;SDS011;38310;52.796;6.942;2023-01-10T11:44:21;22.67;;;6.50;;
52380;SDS011;38310;52.796;6.942;2023-01-10T11:46:55;20.58;;;6.75;;
52380;SDS011;38310;52.796;6.942;2023-01-10T11:51:55;23.58;;;7.05;;
52380;SDS011;38310;52.796;6.942;2023-01-10T11:54:25;21.83;;;6.63;;
52380;SDS011;38310;52.796;6.942;2023-01-10T11:57:03;20.80;;;7.18;;
52380;SDS011;38310;52.796;6.942;2023-01-10T11:59:38;20.23;;;7.75;;
52380;SDS011;38310;52.796;6.942;2023-01-10T12:04:53;16.52;;;8.13;;
52380;SDS011;38310;52.796;6.942;2023-01-10T12:07:20;19.48;;;6.82;;
52380;SDS011;38310;52.796;6.942;2023-01-10T12:09:57;24.13;;;7.30;;
52380;SDS011;38310;52.796;6.942;2023-01-10T12:12:25;18.88;;;6.50;;
52380;SDS011;38310;52.796;6.942;2023-01-10T12:14:57;18.02;;;6.68;;
52380;SDS011;38310;52.796;6.942;2023-01-10T12:19:56;27.15;;;8.13;;
52380;SDS011;38310;52.796;6.942;2023-01-10T12:22:32;16.95;;;6.47;;
52380;SDS011;38310;52.796;6.942;2023-01-10T12:25:04;17.65;;;6.65;;
52380;SDS011;38310;52.796;6.942;2023-01-10T12:27:42;19.65;;;6.35;;
52380;SDS011;38310;52.796;6.942;2023-01-10T12:30:19;21.25;;;7.25;;
52380;SDS011;38310;52.796;6.942;2023-01-10T12:32:54;17.60;;;6.47;;
52380;SDS011;38310;52.796;6.942;2023-01-10T12:35:41;20.10;;;5.43;;
52380;SDS011;38310;52.796;6.942;2023-01-10T12:38:34;33.33;;;7.40;;
52380;SDS011;38310;52.796;6.942;2023-01-10T12:44:23;17.42;;;6.32;;
52380;SDS011;38310;52.796;6.942;2023-01-10T12:55:38;19.60;;;7.65;;
52380;SDS011;38310;52.796;6.942;2023-01-10T12:58:09;23.35;;;7.38;;
52380;SDS011;38310;52.796;6.942;2023-01-10T13:00:47;17.02;;;5.90;;
52380;SDS011;38310;52.796;6.942;2023-01-10T13:03:20;25.92;;;8.00;;
52380;SDS011;38310;52.796;6.942;2023-01-10T13:05:49;20.02;;;7.93;;
52380;SDS011;38310;52.796;6.942;2023-01-10T13:08:18;16.27;;;6.97;;
52380;SDS011;38310;52.796;6.942;2023-01-10T13:10:51;23.33;;;8.20;;
52380;SDS011;38310;52.796;6.942;2023-01-10T13:13:21;26.08;;;8.93;;
52380;SDS011;38310;52.796;6.942;2023-01-10T13:19:04;21.35;;;7.10;;
52380;SDS011;38310;52.796;6.942;2023-01-10T13:21:37;21.25;;;8.27;;
52380;SDS011;38310;52.796;6.942;2023-01-10T13:24:05;20.83;;;7.00;;
52380;SDS011;38310;52.796;6.942;2023-01-10T13:26:54;25.98;;;7.65;;
52380;SDS011;38310;52.796;6.942;2023-01-10T13:29:39;21.83;;;7.30;;
52380;SDS011;38310;52.796;6.942;2023-01-10T13:32:19;16.85;;;6.85;;
52380;SDS011;38310;52.796;6.942;2023-01-10T13:34:48;28.33;;;6.65;;
52380;SDS011;38310;52.796;6.942;2023-01-10T13:37:26;17.05;;;7.00;;
52380;SDS011;38310;52.796;6.942;2023-01-10T13:40:01;18.40;;;5.82;;
52380;SDS011;38310;52.796;6.942;2023-01-10T13:42:33;16.92;;;6.28;;
52380;SDS011;38310;52.796;6.942;2023-01-10T13:55:29;18.55;;;6.07;;
52380;SDS011;38310;52.796;6.942;2023-01-10T13:58:47;21.00;;;6.00;;
52380;SDS011;38310;52.796;6.942;2023-01-10T14:01:20;23.83;;;6.15;;
52380;SDS011;38310;52.796;6.942;2023-01-10T14:04:28;21.73;;;5.82;;
52380;SDS011;38310;52.796;6.942;2023-01-10T14:07:01;19.73;;;6.07;;
52380;SDS011;38310;52.796;6.942;2023-01-10T14:09:34;23.67;;;6.32;;
52380;SDS011;38310;52.796;6.942;2023-01-10T14:12:05;20.08;;;5.90;;
52380;SDS011;38310;52.796;6.942;2023-01-10T14:14:40;23.63;;;6.40;;
52380;SDS011;38310;52.796;6.942;2023-01-10T14:17:30;20.48;;;5.32;;
52380;SDS011;38310;52.796;6.942;2023-01-10T14:22:29;16.77;;;5.80;;
52380;SDS011;38310;52.796;6.942;2023-01-10T14:24:58;12.55;;;4.93;;
52380;SDS011;38310;52.796;6.942;2023-01-10T14:27:36;18.23;;;5.90;;
52380;SDS011;38310;52.796;6.942;2023-01-10T14:30:13;27.35;;;5.65;;
52380;SDS011;38310;52.796;6.942;2023-01-10T14:32:52;19.13;;;5.07;;
52380;SDS011;38310;52.796;6.942;2023-01-10T14:35:21;17.95;;;5.28;;
52380;SDS011;38310;52.796;6.942;2023-01-10T14:37:54;16.75;;;5.00;;
52380;SDS011;38310;52.796;6.942;2023-01-10T14:40:25;18.85;;;5.10;;
52380;SDS011;38310;52.796;6.942;2023-01-10T14:43:05;17.80;;;6.30;;
52380;SDS011;38310;52.796;6.942;2023-01-10T14:45:39;14.05;;;5.22;;
52380;SDS011;38310;52.796;6.942;2023-01-10T14:48:21;16.95;;;5.45;;
52380;SDS011;38310;52.796;6.942;2023-01-10T14:53:46;18.30;;;5.25;;
52380;SDS011;38310;52.796;6.942;2023-01-10T14:56:26;18.45;;;5.20;;
52380;SDS011;38310;52.796;6.942;2023-01-10T14:58:54;15.43;;;5.43;;
52380;SDS011;38310;52.796;6.942;2023-01-10T15:01:26;18.30;;;4.90;;
52380;SDS011;38310;52.796;6.942;2023-01-10T15:03:54;22.67;;;5.88;;
52380;SDS011;38310;52.796;6.942;2023-01-10T15:06:21;17.70;;;5.20;;
52380;SDS011;38310;52.796;6.942;2023-01-10T15:08:58;21.77;;;5.95;;
52380;SDS011;38310;52.796;6.942;2023-01-10T15:11:24;19.35;;;5.40;;
52380;SDS011;38310;52.796;6.942;2023-01-10T15:13:52;16.77;;;5.03;;
52380;SDS011;38310;52.796;6.942;2023-01-10T15:16:21;21.42;;;5.72;;
52380;SDS011;38310;52.796;6.942;2023-01-10T15:18:48;18.75;;;5.55;;
52380;SDS011;38310;52.796;6.942;2023-01-10T15:21:15;17.70;;;5.35;;
52380;SDS011;38310;52.796;6.942;2023-01-10T15:23:46;13.35;;;4.93;;
52380;SDS011;38310;52.796;6.942;2023-01-10T15:29:09;16.95;;;5.07;;
52380;SDS011;38310;52.796;6.942;2023-01-10T15:31:37;25.45;;;5.57;;
52380;SDS011;38310;52.796;6.942;2023-01-10T15:34:07;15.32;;;5.20;;
52380;SDS011;38310;52.796;6.942;2023-01-10T15:36:40;19.48;;;6.03;;
52380;SDS011;38310;52.796;6.942;2023-01-10T15:39:13;18.58;;;5.50;;
52380;SDS011;38310;52.796;6.942;2023-01-10T15:41:46;20.35;;;5.78;;
52380;SDS011;38310;52.796;6.942;2023-01-10T15:44:22;15.48;;;4.95;;
52380;SDS011;38310;52.796;6.942;2023-01-10T15:52:54;18.92;;;5.35;;
52380;SDS011;38310;52.796;6.942;2023-01-10T15:55:35;18.95;;;4.82;;
52380;SDS011;38310;52.796;6.942;2023-01-10T16:00:48;15.00;;;5.15;;
52380;SDS011;38310;52.796;6.942;2023-01-10T16:03:23;19.70;;;4.93;;
52380;SDS011;38310;52.796;6.942;2023-01-10T16:05:57;16.23;;;4.90;;
52380;SDS011;38310;52.796;6.942;2023-01-10T16:08:24;12.48;;;4.82;;
52380;SDS011;38310;52.796;6.942;2023-01-10T16:10:56;15.20;;;4.85;;
52380;SDS011;38310;52.796;6.942;2023-01-10T16:13:23;16.55;;;5.13;;
52380;SDS011;38310;52.796;6.942;2023-01-10T16:15:53;18.73;;;5.15;;
52380;SDS011;38310;52.796;6.942;2023-01-10T16:18:20;14.80;;;4.75;;
52380;SDS011;38310;52.796;6.942;2023-01-10T16:20:46;14.25;;;5.30;;
52380;SDS011;38310;52.796;6.942;2023-01-10T16:23:23;13.27;;;4.40;;
52380;SDS011;38310;52.796;6.942;2023-01-10T16:25:52;16.13;;;5.32;;
52380;SDS011;38310;52.796;6.942;2023-01-10T16:28:20;17.63;;;4.90;;
52380;SDS011;38310;52.796;6.942;2023-01-10T16:30:48;16.88;;;5.07;;
52380;SDS011;38310;52.796;6.942;2023-01-10T16:33:14;15.82;;;5.35;;
52380;SDS011;38310;52.796;6.942;2023-01-10T16:35:45;16.92;;;4.70;;
52380;SDS011;38310;52.796;6.942;2023-01-10T16:38:12;15.45;;;4.95;;
52380;SDS011;38310;52.796;6.942;2023-01-10T16:40:40;18.60;;;5.30;;
52380;SDS011;38310;52.796;6.942;2023-01-10T16:43:11;20.35;;;5.88;;
52380;SDS011;38310;52.796;6.942;2023-01-10T16:45:50;14.82;;;5.03;;
52380;SDS011;38310;52.796;6.942;2023-01-10T16:48:17;13.90;;;4.85;;
52380;SDS011;38310;52.796;6.942;2023-01-10T16:50:45;23.45;;;4.88;;
52380;SDS011;38310;52.796;6.942;2023-01-10T16:53:12;18.48;;;4.95;;
52380;SDS011;38310;52.796;6.942;2023-01-10T16:55:43;18.63;;;4.10;;
52380;SDS011;38310;52.796;6.942;2023-01-10T16:58:11;14.57;;;5.10;;
52380;SDS011;38310;52.796;6.942;2023-01-10T17:00:39;14.30;;;4.82;;